Time;durP1;ratioP1;P1;durP2;ratioP2;P2;SDS_P1;SDS_P2;PMS_P1;PMS_P2;Temp;Humidity;BMP_temperature;BMP_pressure;BME280_temperature;BME280_humidity;BME280_pressure;Samples;Min_cycle;Max_cycle;Signal;HPM_P1;HPM_P2
2023/03/06 00:01:27;;;;;;;4.63;1.90;;;;;;;;;;4977178;28;20213;-67
2023/03/06 00:03:53;;;;;;;2.83;1.70;;;;;;;;;;4983092;28;20224;-68
2023/03/06 00:06:19;;;;;;;3.43;1.97;;;;;;;;;;5002334;28;20939;-67
2023/03/06 00:08:44;;;;;;;3.53;1.93;;;;;;;;;;5003002;28;20303;-67
2023/03/06 00:11:13;;;;;;;3.03;1.73;;;;;;;;;;5001923;28;20619;-68
2023/03/06 00:13:38;;;;;;;3.73;1.90;;;;;;;;;;4999742;28;20750;-67
2023/03/06 00:16:05;;;;;;;2.60;1.80;;;;;;;;;;4982918;28;20221;-67
2023/03/06 00:18:31;;;;;;;2.97;1.80;;;;;;;;;;4979164;28;20309;-68
2023/03/06 00:20:56;;;;;;;2.97;1.90;;;;;;;;;;4976502;28;20217;-68
2023/03/06 00:23:21;;;;;;;3.60;1.80;;;;;;;;;;4975259;28;20216;-67
2023/03/06 00:25:47;;;;;;;2.73;2.00;;;;;;;;;;4979785;28;20727;-68
2023/03/06 00:28:13;;;;;;;3.73;1.80;;;;;;;;;;4993442;28;20227;-67
2023/03/06 00:30:39;;;;;;;3.03;1.90;;;;;;;;;;5002279;28;20243;-67
2023/03/06 00:33:04;;;;;;;3.60;1.97;;;;;;;;;;4991642;28;20217;-67
2023/03/06 00:35:29;;;;;;;2.87;1.80;;;;;;;;;;4983396;28;20228;-67
2023/03/06 00:37:56;;;;;;;3.27;1.90;;;;;;;;;;4988736;28;20298;-68
2023/03/06 00:40:21;;;;;;;3.40;1.80;;;;;;;;;;4987518;28;20220;-67
2023/03/06 00:42:47;;;;;;;3.03;2.00;;;;;;;;;;4977757;28;20236;-67
2023/03/06 00:45:12;;;;;;;3.47;1.90;;;;;;;;;;4975794;28;20209;-67
2023/03/06 00:47:37;;;;;;;3.53;1.93;;;;;;;;;;4999935;28;20315;-68
2023/03/06 00:50:03;;;;;;;2.37;1.97;;;;;;;;;;5011788;28;20217;-67
2023/03/06 00:52:28;;;;;;;3.10;1.90;;;;;;;;;;5011429;28;20216;-68
2023/03/06 00:54:54;;;;;;;3.20;2.00;;;;;;;;;;5012075;28;20217;-68
2023/03/06 00:57:19;;;;;;;3.50;1.90;;;;;;;;;;5011663;28;20232;-67
2023/03/06 00:59:45;;;;;;;4.30;2.17;;;;;;;;;;5011403;28;20216;-68
2023/03/06 01:02:10;;;;;;;3.60;1.90;;;;;;;;;;5011638;28;20216;-67
2023/03/06 01:04:35;;;;;;;3.53;1.87;;;;;;;;;;5012067;28;20224;-68
2023/03/06 01:07:00;;;;;;;2.13;1.77;;;;;;;;;;5010821;28;20260;-66
2023/03/06 01:09:26;;;;;;;3.13;1.97;;;;;;;;;;5011997;28;20224;-68
2023/03/06 01:11:51;;;;;;;3.27;1.70;;;;;;;;;;5011795;28;20618;-68
2023/03/06 01:14:18;;;;;;;3.40;1.73;;;;;;;;;;5003953;28;20264;-67
2023/03/06 01:16:43;;;;;;;3.45;2.10;;;;;;;;;;5007651;28;20220;-68
2023/03/06 01:19:09;;;;;;;3.20;2.00;;;;;;;;;;5010523;28;20334;-68
2023/03/06 01:21:34;;;;;;;3.33;2.23;;;;;;;;;;5011789;28;20703;-68
2023/03/06 01:23:59;;;;;;;3.10;2.27;;;;;;;;;;5011781;28;20216;-68
2023/03/06 01:26:25;;;;;;;3.78;2.00;;;;;;;;;;5010055;28;20228;-68
2023/03/06 01:28:50;;;;;;;2.60;1.77;;;;;;;;;;5011656;28;20303;-68
2023/03/06 01:31:15;;;;;;;3.43;1.93;;;;;;;;;;5011211;28;20683;-68
2023/03/06 01:33:40;;;;;;;2.70;1.90;;;;;;;;;;5010881;28;20685;-68
2023/03/06 01:36:06;;;;;;;2.87;2.17;;;;;;;;;;5010842;28;20201;-67
2023/03/06 01:38:32;;;;;;;3.27;2.10;;;;;;;;;;5011458;28;20223;-67
2023/03/06 01:40:57;;;;;;;4.37;2.10;;;;;;;;;;5010385;28;20216;-68
2023/03/06 01:43:22;;;;;;;3.10;1.70;;;;;;;;;;5010949;28;20219;-67
2023/03/06 01:45:48;;;;;;;2.70;1.80;;;;;;;;;;5011063;28;20625;-67
2023/03/06 01:48:13;;;;;;;3.30;1.87;;;;;;;;;;5010022;28;20240;-68
2023/03/06 01:50:38;;;;;;;2.20;1.70;;;;;;;;;;5011018;28;20741;-68
2023/03/06 01:53:04;;;;;;;3.00;1.87;;;;;;;;;;5010603;28;20556;-67
2023/03/06 01:55:31;;;;;;;4.70;2.10;;;;;;;;;;5014508;28;20212;-68
2023/03/06 01:57:57;;;;;;;4.37;2.50;;;;;;;;;;5026287;28;20222;-68
2023/03/06 02:00:23;;;;;;;3.63;2.23;;;;;;;;;;5028977;28;20219;-68
2023/03/06 02:02:53;;;;;;;2.73;2.10;;;;;;;;;;5028811;28;20215;-68
2023/03/06 02:05:18;;;;;;;3.87;2.17;;;;;;;;;;5030127;28;20204;-66
2023/03/06 02:07:44;;;;;;;3.40;2.00;;;;;;;;;;5017104;28;20802;-68
2023/03/06 02:10:09;;;;;;;3.25;2.40;;;;;;;;;;5013968;28;20267;-68
2023/03/06 02:12:36;;;;;;;4.97;2.20;;;;;;;;;;5012738;28;20218;-68
2023/03/06 02:15:01;;;;;;;3.13;2.30;;;;;;;;;;5018811;28;20235;-67
2023/03/06 02:17:27;;;;;;;3.27;2.40;;;;;;;;;;5002635;28;20216;-68
2023/03/06 02:20:01;;;;;;;2.90;2.30;;;;;;;;;;5001645;28;20224;-68
2023/03/06 02:22:30;;;;;;;4.13;2.20;;;;;;;;;;4994226;28;20675;-68
2023/03/06 02:25:02;;;;;;;3.57;2.30;;;;;;;;;;4987095;28;20209;-68
2023/03/06 02:27:27;;;;;;;3.00;2.23;;;;;;;;;;4992273;28;20247;-68
2023/03/06 02:29:52;;;;;;;4.00;2.50;;;;;;;;;;4991324;28;20232;-68
2023/03/06 02:32:18;;;;;;;4.23;2.60;;;;;;;;;;4997979;28;20254;-68
2023/03/06 02:34:50;;;;;;;3.03;2.20;;;;;;;;;;5000696;28;20216;-68
2023/03/06 02:37:16;;;;;;;3.93;2.33;;;;;;;;;;4999639;28;20894;-68
2023/03/06 02:39:42;;;;;;;4.53;2.60;;;;;;;;;;4999923;28;20212;-68
2023/03/06 02:42:07;;;;;;;4.40;2.67;;;;;;;;;;4998305;28;20221;-68
2023/03/06 02:44:32;;;;;;;6.78;3.40;;;;;;;;;;4986884;28;20213;-68
2023/03/06 02:46:58;;;;;;;4.93;3.00;;;;;;;;;;4987177;28;20228;-68
2023/03/06 02:49:23;;;;;;;4.67;3.10;;;;;;;;;;4977891;28;20241;-68
2023/03/06 02:51:48;;;;;;;6.67;3.30;;;;;;;;;;4977344;28;20216;-68
2023/03/06 02:54:17;;;;;;;3.97;3.07;;;;;;;;;;4980962;28;20224;-68
2023/03/06 02:56:42;;;;;;;5.20;3.37;;;;;;;;;;5002493;28;20256;-68
2023/03/06 02:59:07;;;;;;;5.63;3.50;;;;;;;;;;4995035;28;20247;-68
2023/03/06 03:01:32;;;;;;;3.83;2.90;;;;;;;;;;5004183;28;20204;-68
2023/03/06 03:03:58;;;;;;;4.43;3.20;;;;;;;;;;4988635;28;20638;-68
2023/03/06 03:06:23;;;;;;;6.00;3.60;;;;;;;;;;4983764;28;20233;-68
2023/03/06 03:08:48;;;;;;;7.93;3.87;;;;;;;;;;5003476;28;20216;-68
2023/03/06 03:11:14;;;;;;;6.63;4.53;;;;;;;;;;5012315;28;20219;-68
2023/03/06 03:13:39;;;;;;;5.80;4.40;;;;;;;;;;5013064;28;20719;-68
2023/03/06 03:16:06;;;;;;;5.10;4.23;;;;;;;;;;5030881;28;20704;-67
2023/03/06 03:18:31;;;;;;;5.77;4.70;;;;;;;;;;5053777;28;20264;-68
2023/03/06 03:20:57;;;;;;;6.60;5.20;;;;;;;;;;5052877;28;20227;-68
2023/03/06 03:23:22;;;;;;;6.83;4.53;;;;;;;;;;5053288;28;20223;-68
2023/03/06 03:25:47;;;;;;;5.90;4.90;;;;;;;;;;5049886;28;20287;-68
2023/03/06 03:28:13;;;;;;;7.53;5.37;;;;;;;;;;5015023;28;20679;-68
2023/03/06 03:30:38;;;;;;;6.60;5.57;;;;;;;;;;5013595;28;20220;-68
2023/03/06 03:33:04;;;;;;;7.40;5.47;;;;;;;;;;5012656;28;20217;-68
2023/03/06 03:35:29;;;;;;;7.30;5.83;;;;;;;;;;5013560;28;20216;-68
2023/03/06 03:37:54;;;;;;;8.77;6.20;;;;;;;;;;5013713;28;20307;-68
2023/03/06 03:40:20;;;;;;;8.13;6.33;;;;;;;;;;5012609;28;20219;-68
2023/03/06 03:42:45;;;;;;;7.80;6.47;;;;;;;;;;5013549;28;20223;-68
2023/03/06 03:45:10;;;;;;;7.97;6.60;;;;;;;;;;5012943;28;20217;-68
2023/03/06 03:47:36;;;;;;;9.23;8.07;;;;;;;;;;5012504;28;20228;-68
2023/03/06 03:50:01;;;;;;;9.53;8.00;;;;;;;;;;5013196;28;20308;-68
2023/03/06 03:52:26;;;;;;;8.90;7.33;;;;;;;;;;5013160;28;20219;-68
2023/03/06 03:54:51;;;;;;;8.97;7.57;;;;;;;;;;5012855;28;20213;-69
2023/03/06 03:57:17;;;;;;;9.80;8.40;;;;;;;;;;5012702;28;20244;-68
2023/03/06 03:59:42;;;;;;;9.87;8.70;;;;;;;;;;5011740;28;20209;-68
2023/03/06 04:02:07;;;;;;;10.47;8.60;;;;;;;;;;5011988;28;20232;-68
2023/03/06 04:04:33;;;;;;;10.47;8.83;;;;;;;;;;5013191;28;20234;-68
2023/03/06 04:06:59;;;;;;;8.40;7.50;;;;;;;;;;5012849;28;20255;-68
2023/03/06 04:09:24;;;;;;;10.37;8.63;;;;;;;;;;5011389;28;20212;-68
2023/03/06 04:11:49;;;;;;;11.00;8.60;;;;;;;;;;5012991;28;20211;-68
2023/03/06 04:14:15;;;;;;;10.83;8.73;;;;;;;;;;5011198;28;20785;-68
2023/03/06 04:16:40;;;;;;;9.43;8.30;;;;;;;;;;5037966;28;20302;-68
2023/03/06 04:19:05;;;;;;;9.43;8.07;;;;;;;;;;4996109;28;20267;-68
2023/03/06 04:21:31;;;;;;;9.67;8.60;;;;;;;;;;5008690;28;20216;-68
2023/03/06 04:23:57;;;;;;;10.07;8.90;;;;;;;;;;5012152;28;20223;-68
2023/03/06 04:26:22;;;;;;;10.03;8.67;;;;;;;;;;5019656;28;20231;-68
2023/03/06 04:28:48;;;;;;;10.23;9.10;;;;;;;;;;5032651;28;20211;-68
2023/03/06 04:31:13;;;;;;;10.57;9.07;;;;;;;;;;5031003;28;20216;-68
2023/03/06 04:33:38;;;;;;;10.73;8.83;;;;;;;;;;5032589;28;20286;-68
2023/03/06 04:36:04;;;;;;;8.97;7.57;;;;;;;;;;5031523;28;20583;-68
2023/03/06 04:38:29;;;;;;;11.20;8.77;;;;;;;;;;5032221;28;20277;-68
2023/03/06 04:40:54;;;;;;;9.03;7.53;;;;;;;;;;5032454;28;20562;-68
2023/03/06 04:43:20;;;;;;;8.77;7.70;;;;;;;;;;5031076;28;20223;-68
2023/03/06 04:45:45;;;;;;;9.20;8.10;;;;;;;;;;5004151;28;20212;-69
2023/03/06 04:48:13;;;;;;;10.67;7.90;;;;;;;;;;4994240;28;20895;-69
2023/03/06 04:50:38;;;;;;;10.73;7.77;;;;;;;;;;5013798;28;20211;-69
2023/03/06 04:53:03;;;;;;;9.43;7.70;;;;;;;;;;5013142;28;20714;-68
2023/03/06 04:55:29;;;;;;;9.53;8.30;;;;;;;;;;5021755;28;20227;-69
2023/03/06 04:57:54;;;;;;;9.53;7.50;;;;;;;;;;5021615;28;20253;-66
2023/03/06 05:00:20;;;;;;;8.43;6.97;;;;;;;;;;5021392;28;20219;-66
2023/03/06 05:02:46;;;;;;;9.53;7.90;;;;;;;;;;5017279;28;20223;-67
2023/03/06 05:05:12;;;;;;;8.70;7.47;;;;;;;;;;5012384;28;20208;-66
2023/03/06 05:07:37;;;;;;;7.70;6.70;;;;;;;;;;5020005;28;20216;-67
2023/03/06 05:10:02;;;;;;;9.70;7.70;;;;;;;;;;5011375;28;20227;-66
2023/03/06 05:12:28;;;;;;;8.63;7.37;;;;;;;;;;4994416;28;20221;-66
2023/03/06 05:14:53;;;;;;;8.87;7.10;;;;;;;;;;5015714;28;20730;-66
2023/03/06 05:17:18;;;;;;;7.80;6.93;;;;;;;;;;5001255;28;20270;-67
2023/03/06 05:19:44;;;;;;;9.13;6.60;;;;;;;;;;5002146;28;20216;-67
2023/03/06 05:22:09;;;;;;;8.27;7.00;;;;;;;;;;5003367;28;20667;-66
2023/03/06 05:24:34;;;;;;;8.70;7.30;;;;;;;;;;5003063;28;20216;-67
2023/03/06 05:26:59;;;;;;;8.40;7.07;;;;;;;;;;5015785;28;20232;-67
2023/03/06 05:29:25;;;;;;;8.20;7.20;;;;;;;;;;5001701;28;20216;-66
2023/03/06 05:31:50;;;;;;;9.90;7.70;;;;;;;;;;4995463;28;20274;-67
2023/03/06 05:34:15;;;;;;;8.77;6.97;;;;;;;;;;5012238;28;20215;-67
2023/03/06 05:36:41;;;;;;;8.47;6.63;;;;;;;;;;5013979;28;20302;-67
2023/03/06 05:39:06;;;;;;;7.73;6.63;;;;;;;;;;5019818;28;20266;-66
2023/03/06 05:41:31;;;;;;;8.50;6.77;;;;;;;;;;5012685;28;20212;-67
2023/03/06 05:43:57;;;;;;;8.67;7.60;;;;;;;;;;5021074;28;20216;-67
2023/03/06 05:46:23;;;;;;;8.77;7.40;;;;;;;;;;5010806;28;20224;-67
2023/03/06 05:48:49;;;;;;;9.67;8.03;;;;;;;;;;5001778;28;20220;-67
2023/03/06 05:51:14;;;;;;;9.03;7.90;;;;;;;;;;5001458;28;20217;-67
2023/03/06 05:53:39;;;;;;;8.73;6.83;;;;;;;;;;5003868;28;20285;-67
2023/03/06 05:56:05;;;;;;;8.93;7.43;;;;;;;;;;5013290;28;20219;-67
2023/03/06 05:58:31;;;;;;;9.57;7.90;;;;;;;;;;4997432;28;20248;-67
2023/03/06 06:00:56;;;;;;;11.03;8.70;;;;;;;;;;4997554;28;20311;-67
2023/03/06 06:03:22;;;;;;;8.30;7.27;;;;;;;;;;5000476;28;20291;-67
2023/03/06 06:05:47;;;;;;;9.43;7.93;;;;;;;;;;5001747;28;21181;-67
2023/03/06 06:08:12;;;;;;;8.50;7.60;;;;;;;;;;5000150;28;20213;-67
2023/03/06 06:10:38;;;;;;;9.33;7.63;;;;;;;;;;5013063;28;20541;-68
2023/03/06 06:13:03;;;;;;;9.60;7.67;;;;;;;;;;5001112;28;20219;-66
2023/03/06 06:15:28;;;;;;;9.77;8.07;;;;;;;;;;4998396;28;20315;-67
2023/03/06 06:17:55;;;;;;;9.53;7.03;;;;;;;;;;4994248;28;21079;-67
2023/03/06 06:20:20;;;;;;;12.83;7.60;;;;;;;;;;5006492;28;20275;-67
2023/03/06 06:22:45;;;;;;;9.80;7.13;;;;;;;;;;4994457;28;20216;-67
2023/03/06 06:25:11;;;;;;;10.13;7.03;;;;;;;;;;5012427;28;20224;-67
2023/03/06 06:27:36;;;;;;;9.43;7.13;;;;;;;;;;5003345;28;20317;-67
2023/03/06 06:30:02;;;;;;;7.97;6.90;;;;;;;;;;4999601;28;20583;-67
2023/03/06 06:32:27;;;;;;;9.70;6.77;;;;;;;;;;5020169;28;20220;-67
2023/03/06 06:34:52;;;;;;;8.60;6.97;;;;;;;;;;5011218;28;20212;-67
2023/03/06 06:37:18;;;;;;;8.00;6.20;;;;;;;;;;5009700;28;20223;-67
2023/03/06 06:39:43;;;;;;;7.17;5.87;;;;;;;;;;5006700;28;20224;-67
2023/03/06 06:42:08;;;;;;;6.83;5.37;;;;;;;;;;5003713;28;20285;-67
2023/03/06 06:44:34;;;;;;;7.67;5.87;;;;;;;;;;5012546;28;20216;-67
2023/03/06 06:46:59;;;;;;;8.20;6.53;;;;;;;;;;5018920;28;20224;-67
2023/03/06 06:49:25;;;;;;;7.13;5.40;;;;;;;;;;5011373;28;20223;-67
2023/03/06 06:51:50;;;;;;;6.57;5.43;;;;;;;;;;5019620;28;20216;-67
2023/03/06 06:54:15;;;;;;;7.13;5.40;;;;;;;;;;5002716;28;20223;-67
2023/03/06 06:56:40;;;;;;;7.07;5.60;;;;;;;;;;5000823;28;20216;-67
2023/03/06 06:59:06;;;;;;;6.53;5.20;;;;;;;;;;5001839;28;20223;-67
2023/03/06 07:01:31;;;;;;;7.33;5.63;;;;;;;;;;5016139;28;20743;-67
2023/03/06 07:03:57;;;;;;;7.03;5.90;;;;;;;;;;4996985;28;20217;-66
2023/03/06 07:06:22;;;;;;;6.10;4.67;;;;;;;;;;5008160;28;20228;-68
2023/03/06 07:08:47;;;;;;;7.20;5.47;;;;;;;;;;5002110;28;20216;-68
2023/03/06 07:11:13;;;;;;;6.70;5.30;;;;;;;;;;5012409;28;20429;-68
2023/03/06 07:13:39;;;;;;;6.43;5.30;;;;;;;;;;5019603;28;20263;-66
2023/03/06 07:16:04;;;;;;;9.07;7.20;;;;;;;;;;5009817;28;20411;-66
2023/03/06 07:18:29;;;;;;;8.37;6.70;;;;;;;;;;4999902;28;20262;-66
2023/03/06 07:20:55;;;;;;;6.30;4.77;;;;;;;;;;5006602;28;20228;-66
2023/03/06 07:23:21;;;;;;;4.83;3.80;;;;;;;;;;4998305;28;20335;-66
2023/03/06 07:25:47;;;;;;;5.97;3.97;;;;;;;;;;4992926;28;20316;-66
2023/03/06 07:28:12;;;;;;;4.37;3.47;;;;;;;;;;4992758;28;20231;-65
2023/03/06 07:30:43;;;;;;;4.43;3.30;;;;;;;;;;5014024;28;21107;-66
2023/03/06 07:33:09;;;;;;;7.50;4.90;;;;;;;;;;5018813;28;20285;-66
2023/03/06 07:35:34;;;;;;;6.47;5.77;;;;;;;;;;5022919;28;20429;-66
2023/03/06 07:37:59;;;;;;;7.73;5.50;;;;;;;;;;5011112;28;20894;-66
2023/03/06 07:40:25;;;;;;;5.20;4.47;;;;;;;;;;5003245;28;20213;-66
2023/03/06 07:42:53;;;;;;;6.10;4.97;;;;;;;;;;5003819;28;20222;-66
2023/03/06 07:45:19;;;;;;;5.53;3.80;;;;;;;;;;5012517;28;20232;-67
2023/03/06 07:47:44;;;;;;;9.00;6.50;;;;;;;;;;5013130;28;20966;-66
2023/03/06 07:50:10;;;;;;;8.70;7.23;;;;;;;;;;4996143;28;20212;-66
2023/03/06 07:52:35;;;;;;;4.03;3.10;;;;;;;;;;5011477;28;20359;-66
2023/03/06 07:55:00;;;;;;;4.00;2.57;;;;;;;;;;5002342;28;20255;-64
2023/03/06 07:57:26;;;;;;;4.47;2.70;;;;;;;;;;5003685;28;20221;-65
2023/03/06 07:59:51;;;;;;;4.07;2.50;;;;;;;;;;5003655;28;20227;-65
2023/03/06 08:02:16;;;;;;;3.30;2.60;;;;;;;;;;5012126;28;20275;-66
2023/03/06 08:04:42;;;;;;;3.83;2.23;;;;;;;;;;5020857;28;20609;-65
2023/03/06 08:07:07;;;;;;;3.35;2.10;;;;;;;;;;5009238;28;20216;-65
2023/03/06 08:09:33;;;;;;;3.23;2.37;;;;;;;;;;5012279;28;20600;-65
2023/03/06 08:11:58;;;;;;;2.83;2.00;;;;;;;;;;5011300;28;20751;-66
2023/03/06 08:14:24;;;;;;;3.40;2.07;;;;;;;;;;5011670;28;20243;-65
2023/03/06 08:16:50;;;;;;;3.43;2.00;;;;;;;;;;5039595;28;20253;-67
2023/03/06 08:19:15;;;;;;;2.40;1.83;;;;;;;;;;5011642;28;20209;-66
2023/03/06 08:21:40;;;;;;;2.43;1.60;;;;;;;;;;5001640;28;20734;-67
2023/03/06 08:24:06;;;;;;;2.65;1.80;;;;;;;;;;5013080;28;20224;-68
2023/03/06 08:26:31;;;;;;;2.08;1.50;;;;;;;;;;5008313;28;20224;-66
2023/03/06 08:28:57;;;;;;;2.47;1.40;;;;;;;;;;5015413;28;20542;-66
2023/03/06 08:31:22;;;;;;;2.00;1.47;;;;;;;;;;5030918;28;20287;-66
2023/03/06 08:33:47;;;;;;;1.80;1.30;;;;;;;;;;5029556;28;20243;-66
2023/03/06 08:36:13;;;;;;;2.25;1.17;;;;;;;;;;5030680;28;20217;-66
2023/03/06 08:38:38;;;;;;;2.30;1.30;;;;;;;;;;5032473;28;20215;-66
2023/03/06 08:41:03;;;;;;;1.70;0.90;;;;;;;;;;5031842;28;20219;-65
2023/03/06 08:43:29;;;;;;;1.02;0.88;;;;;;;;;;5031624;28;20216;-66
2023/03/06 08:45:55;;;;;;;2.47;1.10;;;;;;;;;;5030544;28;20286;-67
2023/03/06 08:48:20;;;;;;;0.93;0.75;;;;;;;;;;5029734;28;21874;-67
2023/03/06 08:50:45;;;;;;;0.90;0.70;;;;;;;;;;5026834;28;20210;-66
2023/03/06 08:53:10;;;;;;;0.70;0.70;;;;;;;;;;5030199;28;20621;-66
2023/03/06 08:55:36;;;;;;;1.17;0.70;;;;;;;;;;5032173;28;20212;-66
2023/03/06 08:58:03;;;;;;;1.08;0.70;;;;;;;;;;5022550;28;20242;-65
2023/03/06 09:00:28;;;;;;;1.05;0.80;;;;;;;;;;5019448;28;20220;-67
2023/03/06 09:02:53;;;;;;;1.13;0.63;;;;;;;;;;5008664;28;20560;-65
2023/03/06 09:05:19;;;;;;;0.60;0.60;;;;;;;;;;5005545;28;20292;-65
2023/03/06 09:07:44;;;;;;;1.00;0.63;;;;;;;;;;5001316;28;20224;-65
2023/03/06 09:10:13;;;;;;;0.70;0.65;;;;;;;;;;5007310;28;20219;-66
2023/03/06 09:12:38;;;;;;;1.17;0.70;;;;;;;;;;5006703;28;20482;-64
2023/03/06 09:15:04;;;;;;;0.70;0.40;;;;;;;;;;4994067;28;20429;-65
2023/03/06 09:17:29;;;;;;;1.10;0.60;;;;;;;;;;5050879;28;20219;-66
2023/03/06 09:19:55;;;;;;;0.93;0.57;;;;;;;;;;5051617;28;20246;-67
2023/03/06 09:22:20;;;;;;;0.68;0.60;;;;;;;;;;5050479;28;20689;-66
2023/03/06 09:24:45;;;;;;;0.50;0.50;;;;;;;;;;5050615;28;20214;-67
2023/03/06 09:27:11;;;;;;;0.47;0.40;;;;;;;;;;5025764;28;20283;-66
2023/03/06 09:29:36;;;;;;;0.40;0.30;;;;;;;;;;5000898;28;20224;-66
2023/03/06 09:32:01;;;;;;;1.30;0.60;;;;;;;;;;4992691;28;20632;-65
2023/03/06 09:34:27;;;;;;;0.57;0.50;;;;;;;;;;4992092;28;20791;-66
2023/03/06 09:36:52;;;;;;;0.30;0.30;;;;;;;;;;4991462;28;20719;-66
2023/03/06 09:39:17;;;;;;;0.70;0.43;;;;;;;;;;4990773;28;20209;-66
2023/03/06 09:41:43;;;;;;;0.75;0.45;;;;;;;;;;4991782;28;20692;-66
2023/03/06 09:44:09;;;;;;;0.98;0.50;;;;;;;;;;4990015;28;20213;-66
2023/03/06 09:46:35;;;;;;;1.00;0.50;;;;;;;;;;4991066;28;20304;-66
2023/03/06 09:49:09;;;;;;;0.52;0.50;;;;;;;;;;5003175;28;20300;-66
2023/03/06 09:51:39;;;;;;;0.93;0.40;;;;;;;;;;5008325;28;20237;-66
2023/03/06 09:54:12;;;;;;;0.50;0.40;;;;;;;;;;5008753;28;20240;-65
2023/03/06 09:56:37;;;;;;;1.10;0.40;;;;;;;;;;5008757;28;20867;-66
2023/03/06 09:59:05;;;;;;;0.47;0.43;;;;;;;;;;5009469;28;20255;-65
2023/03/06 10:01:33;;;;;;;1.00;0.45;;;;;;;;;;5009184;28;20887;-66
2023/03/06 10:04:02;;;;;;;1.08;0.40;;;;;;;;;;5009847;28;20239;-66
2023/03/06 10:06:29;;;;;;;1.17;0.30;;;;;;;;;;5017543;28;20228;-66
2023/03/06 10:08:59;;;;;;;0.82;0.40;;;;;;;;;;5008831;28;20295;-66
2023/03/06 10:11:26;;;;;;;1.38;0.50;;;;;;;;;;5009240;28;20663;-66
2023/03/06 10:13:57;;;;;;;1.05;0.60;;;;;;;;;;5015433;28;20582;-66
2023/03/06 10:16:27;;;;;;;1.65;0.50;;;;;;;;;;5025650;28;20328;-67
2023/03/06 10:18:53;;;;;;;1.02;0.40;;;;;;;;;;5009684;28;20216;-66
2023/03/06 10:21:22;;;;;;;1.48;0.40;;;;;;;;;;5007777;28;20212;-66
2023/03/06 10:23:50;;;;;;;0.98;0.40;;;;;;;;;;5009240;28;20225;-66
2023/03/06 10:26:21;;;;;;;0.40;0.40;;;;;;;;;;5008823;28;20266;-65
2023/03/06 10:28:51;;;;;;;1.02;0.50;;;;;;;;;;5008632;28;20625;-66
2023/03/06 10:31:17;;;;;;;0.68;0.40;;;;;;;;;;5010184;28;20300;-66
2023/03/06 10:33:50;;;;;;;0.68;0.43;;;;;;;;;;5010587;28;20290;-66
2023/03/06 10:36:16;;;;;;;0.88;0.43;;;;;;;;;;5009176;28;20232;-65
2023/03/06 10:38:41;;;;;;;1.55;0.45;;;;;;;;;;5010477;28;20312;-66
2023/03/06 10:41:09;;;;;;;0.85;0.40;;;;;;;;;;5010195;28;20631;-65
2023/03/06 10:43:35;;;;;;;1.02;0.38;;;;;;;;;;5009458;28;20223;-65
2023/03/06 10:46:01;;;;;;;0.43;0.30;;;;;;;;;;5009964;28;20216;-65
2023/03/06 10:48:27;;;;;;;1.42;0.60;;;;;;;;;;5010537;28;20765;-66
2023/03/06 10:50:53;;;;;;;0.45;0.30;;;;;;;;;;5004461;28;20240;-66
2023/03/06 10:53:21;;;;;;;0.57;0.28;;;;;;;;;;5007897;28;20843;-66
2023/03/06 10:55:50;;;;;;;1.10;0.30;;;;;;;;;;5009890;28;20219;-66
2023/03/06 10:58:18;;;;;;;1.02;0.30;;;;;;;;;;5009682;28;20308;-66
2023/03/06 11:00:43;;;;;;;0.60;0.30;;;;;;;;;;5009275;28;20213;-66
2023/03/06 11:03:15;;;;;;;0.28;0.28;;;;;;;;;;5009157;28;20208;-66
2023/03/06 11:05:51;;;;;;;0.30;0.20;;;;;;;;;;5010261;28;20239;-65
2023/03/06 11:08:19;;;;;;;0.50;0.40;;;;;;;;;;5008127;28;20734;-66
2023/03/06 11:10:44;;;;;;;0.88;0.30;;;;;;;;;;4993176;28;20209;-66
2023/03/06 11:13:20;;;;;;;1.02;0.25;;;;;;;;;;5009476;28;20215;-66
2023/03/06 11:15:54;;;;;;;0.98;0.20;;;;;;;;;;5011614;28;20295;-66
2023/03/06 11:18:19;;;;;;;0.75;0.20;;;;;;;;;;5012855;28;20222;-65
2023/03/06 11:20:45;;;;;;;1.13;0.30;;;;;;;;;;5013812;28;20208;-65
2023/03/06 11:23:17;;;;;;;0.98;0.38;;;;;;;;;;5012101;28;20224;-66
2023/03/06 11:25:47;;;;;;;0.90;0.30;;;;;;;;;;5012969;28;20228;-66
2023/03/06 11:28:16;;;;;;;1.45;0.80;;;;;;;;;;5013415;28;20228;-66
2023/03/06 11:30:43;;;;;;;0.50;0.30;;;;;;;;;;5012479;28;20672;-66
2023/03/06 11:33:10;;;;;;;1.20;1.10;;;;;;;;;;5011162;28;20215;-66
2023/03/06 11:35:44;;;;;;;4.25;3.83;;;;;;;;;;5013712;28;20228;-66
2023/03/06 11:38:10;;;;;;;0.40;0.40;;;;;;;;;;5011013;28;20576;-66
2023/03/06 11:40:39;;;;;;;0.93;0.30;;;;;;;;;;5013635;28;20915;-66
2023/03/06 11:43:23;;;;;;;0.43;0.30;;;;;;;;;;5013101;28;20231;-64
2023/03/06 11:45:57;;;;;;;0.93;0.25;;;;;;;;;;5012726;28;20217;-67
2023/03/06 11:48:24;;;;;;;2.17;0.50;;;;;;;;;;5011777;28;20216;-66
2023/03/06 11:50:51;;;;;;;1.13;0.30;;;;;;;;;;4998510;28;20216;-66
2023/03/06 11:53:18;;;;;;;2.58;0.30;;;;;;;;;;4992483;28;20228;-66
2023/03/06 11:55:46;;;;;;;1.25;0.30;;;;;;;;;;4993575;28;20662;-66
2023/03/06 11:58:23;;;;;;;0.63;0.30;;;;;;;;;;4992053;28;20267;-66
2023/03/06 12:00:49;;;;;;;0.45;0.20;;;;;;;;;;4992930;28;20221;-66
2023/03/06 12:03:23;;;;;;;0.70;0.30;;;;;;;;;;4993158;28;20216;-66
2023/03/06 12:06:12;;;;;;;1.05;0.35;;;;;;;;;;4992012;28;20223;-66
2023/03/06 12:08:40;;;;;;;0.40;0.30;;;;;;;;;;4992921;28;20214;-66
2023/03/06 12:11:14;;;;;;;1.00;0.30;;;;;;;;;;4992827;28;20225;-66
2023/03/06 12:13:51;;;;;;;1.85;0.40;;;;;;;;;;5017493;28;20318;-66
2023/03/06 12:16:23;;;;;;;0.80;0.30;;;;;;;;;;5012703;28;20295;-66
2023/03/06 12:18:48;;;;;;;1.08;0.30;;;;;;;;;;5012810;28;20216;-67
2023/03/06 12:21:22;;;;;;;1.17;0.32;;;;;;;;;;5010320;28;20231;-66
2023/03/06 12:23:47;;;;;;;1.10;0.40;;;;;;;;;;5011641;28;20211;-66
2023/03/06 12:26:23;;;;;;;1.27;0.40;;;;;;;;;;5012058;28;20572;-66
2023/03/06 12:28:55;;;;;;;0.90;0.45;;;;;;;;;;5010665;28;20216;-66
2023/03/06 12:31:26;;;;;;;1.00;0.30;;;;;;;;;;5011044;28;20215;-66
2023/03/06 12:33:56;;;;;;;0.70;0.40;;;;;;;;;;5012504;28;20223;-66
2023/03/06 12:36:21;;;;;;;1.13;0.40;;;;;;;;;;5010209;28;20208;-66
2023/03/06 12:38:52;;;;;;;0.90;0.40;;;;;;;;;;5012413;28;20444;-66
2023/03/06 12:41:21;;;;;;;0.80;0.30;;;;;;;;;;5012156;28;20224;-66
2023/03/06 12:43:50;;;;;;;1.10;0.50;;;;;;;;;;5009712;28;20300;-66
2023/03/06 12:46:16;;;;;;;1.23;0.40;;;;;;;;;;5012030;28;20239;-66
2023/03/06 12:48:42;;;;;;;0.55;0.30;;;;;;;;;;5010137;28;20604;-66
2023/03/06 12:51:08;;;;;;;1.08;0.45;;;;;;;;;;5010378;28;20271;-66
2023/03/06 12:53:34;;;;;;;0.65;0.30;;;;;;;;;;5010922;28;20216;-66
2023/03/06 12:55:59;;;;;;;2.20;0.60;;;;;;;;;;5011301;28;20212;-66
2023/03/06 12:58:28;;;;;;;1.23;0.40;;;;;;;;;;5011747;28;20663;-66
2023/03/06 13:00:58;;;;;;;2.25;0.63;;;;;;;;;;5012152;28;20231;-66
2023/03/06 13:03:28;;;;;;;2.10;0.30;;;;;;;;;;5009524;28;20227;-66
2023/03/06 13:05:57;;;;;;;0.70;0.30;;;;;;;;;;5010478;28;20216;-66
2023/03/06 13:08:32;;;;;;;0.85;0.30;;;;;;;;;;5011536;28;20271;-66
2023/03/06 13:11:12;;;;;;;0.98;0.40;;;;;;;;;;5010933;28;20270;-66
2023/03/06 13:13:41;;;;;;;0.57;0.35;;;;;;;;;;5024525;28;20235;-66
2023/03/06 13:16:07;;;;;;;1.85;0.50;;;;;;;;;;5030068;28;20208;-66
2023/03/06 13:18:32;;;;;;;1.38;0.50;;;;;;;;;;5010931;28;20277;-66
2023/03/06 13:20:57;;;;;;;1.58;0.50;;;;;;;;;;5011522;28;20213;-66
2023/03/06 13:23:29;;;;;;;1.25;0.60;;;;;;;;;;5011274;28;20217;-66
2023/03/06 13:25:55;;;;;;;0.60;0.40;;;;;;;;;;5010860;28;20224;-66
2023/03/06 13:28:21;;;;;;;1.85;0.50;;;;;;;;;;5010968;28;20236;-66
2023/03/06 13:30:46;;;;;;;1.60;0.50;;;;;;;;;;5010674;28;20591;-66
2023/03/06 13:33:46;;;;;;;2.40;0.60;;;;;;;;;;5011527;28;20224;-66
2023/03/06 13:36:18;;;;;;;1.10;0.50;;;;;;;;;;5009549;28;20217;-66
2023/03/06 13:38:44;;;;;;;1.38;0.68;;;;;;;;;;5004968;28;20208;-66
2023/03/06 13:41:19;;;;;;;2.42;0.50;;;;;;;;;;5010790;28;20243;-66
2023/03/06 13:43:44;;;;;;;0.70;0.40;;;;;;;;;;5011256;28;20212;-66
2023/03/06 13:46:18;;;;;;;2.10;0.55;;;;;;;;;;5010319;28;20286;-66
2023/03/06 13:48:43;;;;;;;0.88;0.55;;;;;;;;;;5009638;28;20675;-66
2023/03/06 13:51:21;;;;;;;1.42;0.60;;;;;;;;;;5010926;28;20219;-66
2023/03/06 13:53:52;;;;;;;1.67;0.60;;;;;;;;;;5009081;28;20216;-66
2023/03/06 13:56:22;;;;;;;1.95;0.80;;;;;;;;;;5009593;28;20549;-66
2023/03/06 13:58:47;;;;;;;1.80;0.60;;;;;;;;;;5008839;28;20215;-66
2023/03/06 14:01:12;;;;;;;2.28;0.88;;;;;;;;;;5010720;28;20212;-66
2023/03/06 14:03:39;;;;;;;1.85;0.98;;;;;;;;;;5010706;28;20579;-66
2023/03/06 14:06:23;;;;;;;1.98;0.80;;;;;;;;;;5009865;28;20217;-66
2023/03/06 14:08:48;;;;;;;1.52;0.90;;;;;;;;;;5011052;28;20273;-66
2023/03/06 14:11:16;;;;;;;2.17;0.80;;;;;;;;;;5010651;28;20646;-66
2023/03/06 14:13:42;;;;;;;2.65;0.80;;;;;;;;;;5019679;28;20227;-66
2023/03/06 14:16:10;;;;;;;2.47;1.10;;;;;;;;;;5028869;28;20350;-66
2023/03/06 14:18:37;;;;;;;1.58;0.95;;;;;;;;;;5010467;28;20251;-67
2023/03/06 14:21:03;;;;;;;1.98;1.05;;;;;;;;;;5008479;28;20267;-66
2023/03/06 14:23:31;;;;;;;3.90;1.20;;;;;;;;;;5010710;28;20216;-66
2023/03/06 14:26:02;;;;;;;3.53;1.30;;;;;;;;;;5010758;28;20208;-66
2023/03/06 14:28:29;;;;;;;3.17;1.52;;;;;;;;;;5008000;28;20223;-66
2023/03/06 14:30:54;;;;;;;4.10;1.40;;;;;;;;;;5010726;28;20216;-66
2023/03/06 14:33:25;;;;;;;3.00;1.38;;;;;;;;;;5009880;28;20222;-66
2023/03/06 14:35:50;;;;;;;2.83;1.67;;;;;;;;;;5008864;28;20216;-66
2023/03/06 14:38:16;;;;;;;4.18;1.92;;;;;;;;;;5008881;28;20656;-66
2023/03/06 14:40:42;;;;;;;3.92;2.00;;;;;;;;;;5014857;28;20220;-66